createdAt,value
2019-01-24T00:02:09.365Z,50.00
2019-01-24T00:04:38.431Z,46.23
2019-01-24T00:07:07.440Z,44.10
2019-01-24T00:09:36.445Z,49.00
2019-01-24T00:12:05.475Z,46.37
2019-01-24T00:14:34.569Z,43.83
2019-01-24T00:17:03.648Z,47.60
2019-01-24T00:19:32.753Z,47.87
2019-01-24T00:22:01.838Z,57.27
2019-01-24T00:24:30.948Z,46.90
2019-01-24T00:26:59.931Z,47.00
2019-01-24T00:29:29.061Z,48.20
2019-01-24T00:31:58.069Z,48.77
2019-01-24T00:34:27.174Z,47.63
2019-01-24T00:36:56.295Z,43.47
2019-01-24T00:39:25.282Z,45.80
2019-01-24T00:41:54.279Z,49.90
2019-01-24T00:44:23.355Z,49.23
2019-01-24T00:46:52.384Z,44.73
2019-01-24T00:49:21.494Z,45.60
2019-01-24T00:51:50.489Z,45.37
2019-01-24T00:54:19.626Z,47.13
2019-01-24T00:56:48.630Z,47.67
2019-01-24T00:59:17.627Z,49.00
2019-01-24T01:01:46.638Z,42.87
2019-01-24T01:04:15.655Z,56.90
2019-01-24T01:06:44.647Z,51.27
2019-01-24T01:09:15.411Z,45.33
2019-01-24T01:11:44.407Z,50.73
2019-01-24T01:14:13.411Z,54.67
2019-01-24T01:16:42.396Z,47.87
2019-01-24T01:19:11.475Z,51.87
2019-01-24T01:21:40.541Z,53.63
2019-01-24T01:24:09.612Z,46.20
2019-01-24T01:26:41.413Z,53.67
2019-01-24T01:29:10.520Z,49.27
2019-01-24T01:31:39.584Z,49.53
2019-01-24T01:34:08.659Z,53.70
2019-01-24T01:36:37.703Z,48.00
2019-01-24T01:39:07.624Z,45.40
2019-01-24T01:41:36.681Z,47.40
2019-01-24T01:44:05.780Z,47.80
2019-01-24T01:46:34.743Z,46.83
2019-01-24T01:49:04.022Z,43.97
2019-01-24T01:51:33.019Z,44.33
2019-01-24T01:54:02.176Z,47.23
2019-01-24T01:56:31.181Z,46.53
2019-01-24T01:59:00.199Z,52.20
2019-01-24T02:01:29.192Z,49.73
2019-01-24T02:03:58.240Z,46.00
2019-01-24T02:06:27.278Z,41.10
2019-01-24T02:08:56.379Z,52.27
2019-01-24T02:11:25.361Z,52.53
2019-01-24T02:13:54.487Z,49.40
2019-01-24T02:16:23.547Z,44.93
2019-01-24T02:18:52.641Z,48.30
2019-01-24T02:21:21.618Z,47.40
2019-01-24T02:23:53.458Z,49.23
2019-01-24T02:26:22.528Z,47.70
2019-01-24T02:28:51.527Z,42.80
2019-01-24T02:31:20.606Z,48.23
2019-01-24T02:33:49.648Z,47.43
2019-01-24T02:36:18.639Z,45.67
2019-01-24T02:38:47.623Z,48.60
2019-01-24T02:41:16.627Z,46.03
2019-01-24T02:43:45.631Z,45.80
2019-01-24T02:46:14.652Z,46.70
2019-01-24T02:48:43.624Z,42.40
2019-01-24T02:51:12.635Z,50.37
2019-01-24T02:53:41.666Z,52.30
2019-01-24T02:56:10.689Z,57.43
2019-01-24T02:58:39.688Z,48.27
2019-01-24T03:01:08.694Z,51.40
2019-01-24T03:03:37.715Z,49.40
2019-01-24T03:06:06.715Z,47.03
2019-01-24T03:08:35.784Z,45.03
2019-01-24T03:11:04.930Z,49.43
2019-01-24T03:13:33.935Z,45.57
2019-01-24T03:16:03.078Z,52.20
2019-01-24T03:18:32.144Z,49.17
2019-01-24T03:21:01.136Z,50.80
2019-01-24T03:23:30.115Z,43.83
2019-01-24T03:25:59.134Z,45.57
2019-01-24T03:28:28.150Z,50.27
2019-01-24T03:30:57.161Z,47.43
2019-01-24T03:33:26.174Z,46.00
2019-01-24T03:35:55.191Z,47.10
2019-01-24T03:38:24.180Z,52.47
2019-01-24T03:40:54.015Z,51.93
2019-01-24T03:43:23.083Z,49.60
2019-01-24T03:45:52.211Z,50.37
2019-01-24T03:48:21.188Z,55.40
2019-01-24T03:50:50.259Z,54.20
2019-01-24T03:53:19.246Z,47.27
2019-01-24T03:55:48.252Z,55.03
2019-01-24T03:58:17.234Z,50.83
2019-01-24T04:00:46.263Z,49.03
2019-01-24T04:03:15.330Z,47.27
2019-01-24T04:05:44.323Z,54.10
2019-01-24T04:08:13.310Z,49.03
2019-01-24T04:10:42.398Z,48.53
2019-01-24T04:13:11.387Z,47.03
2019-01-24T04:15:40.462Z,54.03
2019-01-24T04:18:09.485Z,49.93
2019-01-24T04:20:38.474Z,48.53
2019-01-24T04:23:07.455Z,48.17
2019-01-24T04:25:36.504Z,48.87
2019-01-24T04:28:05.527Z,43.10
2019-01-24T04:30:34.535Z,51.67
2019-01-24T04:33:03.524Z,50.63
2019-01-24T04:35:32.575Z,47.93
2019-01-24T04:38:01.561Z,51.43
2019-01-24T04:40:30.566Z,52.60
2019-01-24T04:42:59.622Z,53.57
2019-01-24T04:45:28.649Z,51.80
2019-01-24T04:47:57.720Z,52.27
2019-01-24T04:50:26.870Z,52.27
2019-01-24T04:52:55.840Z,51.93
2019-01-24T04:55:24.853Z,48.17
2019-01-24T04:57:54.997Z,45.33
2019-01-24T05:00:25.415Z,47.43
2019-01-24T05:02:54.411Z,49.60
2019-01-24T05:05:27.856Z,48.57
2019-01-24T05:07:54.081Z,44.23
2019-01-24T05:10:23.095Z,46.97
2019-01-24T05:12:52.072Z,45.57
2019-01-24T05:15:21.077Z,49.73
2019-01-24T05:17:50.036Z,52.37
2019-01-24T05:20:19.074Z,48.33
2019-01-24T05:22:48.174Z,44.40
2019-01-24T05:25:17.351Z,45.77
2019-01-24T05:27:46.483Z,42.87
2019-01-24T05:30:17.170Z,48.30
2019-01-24T05:32:46.173Z,48.43
2019-01-24T05:35:15.146Z,48.87
2019-01-24T05:37:44.147Z,46.23
2019-01-24T05:40:13.123Z,48.43
2019-01-24T05:42:42.114Z,49.47
2019-01-24T05:45:11.222Z,49.50
2019-01-24T05:47:40.288Z,47.20
2019-01-24T05:50:09.517Z,46.90
2019-01-24T05:52:38.747Z,46.93
2019-01-24T05:55:08.194Z,48.57
2019-01-24T05:57:37.203Z,53.17
2019-01-24T06:00:07.092Z,46.77
2019-01-24T06:02:36.388Z,47.57
2019-01-24T06:05:05.964Z,48.67
2019-01-24T06:07:34.964Z,48.03
2019-01-24T06:10:04.499Z,50.27
2019-01-24T06:12:33.556Z,48.93
2019-01-24T06:15:02.619Z,45.70
2019-01-24T06:17:31.630Z,46.30
2019-01-24T06:20:00.642Z,48.63
2019-01-24T06:22:29.742Z,45.90
2019-01-24T06:24:58.814Z,46.87
2019-01-24T06:27:27.818Z,49.60
2019-01-24T06:29:56.799Z,51.77
2019-01-24T06:32:25.786Z,45.50
2019-01-24T06:34:54.759Z,53.30
2019-01-24T06:37:23.766Z,53.17
2019-01-24T06:39:52.757Z,49.97
2019-01-24T06:42:21.744Z,52.70
2019-01-24T06:44:50.806Z,51.70
2019-01-24T06:47:19.806Z,51.97
2019-01-24T06:49:48.785Z,48.93
2019-01-24T06:52:17.878Z,53.53
2019-01-24T06:54:46.910Z,48.13
2019-01-24T06:57:15.902Z,51.33
2019-01-24T06:59:44.999Z,52.20
2019-01-24T07:02:14.026Z,54.90
2019-01-24T07:04:43.060Z,52.10
2019-01-24T07:07:12.059Z,51.70
2019-01-24T07:09:41.042Z,52.53
2019-01-24T07:12:10.029Z,48.73
2019-01-24T07:14:39.027Z,49.20
2019-01-24T07:17:08.031Z,51.77
2019-01-24T07:19:37.038Z,49.07
2019-01-24T07:22:06.050Z,50.27
2019-01-24T07:24:35.178Z,50.87
2019-01-24T07:27:04.264Z,59.73
2019-01-24T07:29:33.269Z,53.13
2019-01-24T07:32:02.329Z,54.80
2019-01-24T07:34:31.349Z,51.23
2019-01-24T07:37:00.336Z,52.07
2019-01-24T07:39:29.347Z,56.43
2019-01-24T07:41:58.383Z,60.70
2019-01-24T07:44:27.395Z,52.73
2019-01-24T07:46:56.421Z,52.70
2019-01-24T07:49:25.499Z,56.43
2019-01-24T07:51:54.502Z,56.93
2019-01-24T07:54:23.494Z,58.83
2019-01-24T07:56:52.486Z,56.47
2019-01-24T07:59:21.481Z,60.27
2019-01-24T08:01:50.516Z,64.50
2019-01-24T08:04:19.541Z,63.83
2019-01-24T08:06:48.619Z,64.83
2019-01-24T08:09:17.688Z,61.60
2019-01-24T08:11:46.676Z,60.33
2019-01-24T08:14:15.751Z,62.60
2019-01-24T08:16:44.713Z,58.47
2019-01-24T08:19:13.702Z,64.67
2019-01-24T08:21:42.697Z,63.50
2019-01-24T08:24:11.692Z,60.77
2019-01-24T08:26:40.772Z,57.87
2019-01-24T08:29:09.803Z,61.20
2019-01-24T08:31:38.844Z,62.03
2019-01-24T08:34:07.877Z,63.73
2019-01-24T08:36:36.858Z,64.90
2019-01-24T08:39:07.338Z,67.73
2019-01-24T08:41:36.332Z,68.33
2019-01-24T08:44:05.334Z,61.57
2019-01-24T08:46:34.348Z,62.67
2019-01-24T08:49:03.498Z,64.30
2019-01-24T08:51:32.494Z,62.43
2019-01-24T08:54:01.508Z,58.17
2019-01-24T08:56:30.511Z,60.37
2019-01-24T08:58:59.571Z,65.70
2019-01-24T09:01:28.553Z,62.17
2019-01-24T09:03:57.568Z,58.40
2019-01-24T09:06:26.606Z,62.13
2019-01-24T09:08:55.629Z,70.50
2019-01-24T09:11:24.688Z,59.33
2019-01-24T09:13:53.847Z,71.70
2019-01-24T09:16:22.839Z,59.50
2019-01-24T09:18:51.831Z,63.87
2019-01-24T09:21:20.824Z,61.63
2019-01-24T09:23:49.840Z,66.87
2019-01-24T09:26:18.812Z,62.73
2019-01-24T09:28:47.847Z,65.70
2019-01-24T09:31:16.847Z,68.77
2019-01-24T09:33:45.847Z,64.17
2019-01-24T09:36:14.892Z,66.47
2019-01-24T09:38:43.925Z,71.17
2019-01-24T09:41:12.917Z,67.03
2019-01-24T09:43:41.907Z,69.83
2019-01-24T09:46:10.907Z,63.47
2019-01-24T09:48:39.901Z,67.60
2019-01-24T09:51:08.875Z,71.37
2019-01-24T09:53:37.907Z,68.37
2019-01-24T09:56:06.878Z,71.23
2019-01-24T09:58:35.950Z,69.23
2019-01-24T10:01:04.929Z,70.90
2019-01-24T10:03:33.924Z,67.80
2019-01-24T10:06:03.031Z,76.57
2019-01-24T10:08:32.042Z,72.23
2019-01-24T10:11:01.019Z,73.90
2019-01-24T10:13:30.014Z,72.73
2019-01-24T10:15:59.057Z,71.37
2019-01-24T10:18:28.044Z,69.60
2019-01-24T10:20:57.027Z,68.33
2019-01-24T10:23:26.040Z,74.17
2019-01-24T10:25:55.018Z,81.37
2019-01-24T10:28:24.019Z,80.50
2019-01-24T10:30:53.097Z,76.40
2019-01-24T10:33:22.113Z,82.07
2019-01-24T10:35:51.133Z,77.67
2019-01-24T10:38:20.211Z,81.17
2019-01-24T10:40:49.249Z,73.00
2019-01-24T10:43:18.312Z,82.10
2019-01-24T10:45:47.437Z,77.80
2019-01-24T10:48:16.430Z,74.97
2019-01-24T10:50:45.426Z,76.40
2019-01-24T10:53:14.386Z,73.77
2019-01-24T10:55:43.406Z,78.53
2019-01-24T10:58:12.387Z,76.83
2019-01-24T11:00:42.133Z,74.47
2019-01-24T11:03:15.258Z,78.63
2019-01-24T11:05:44.411Z,81.50
2019-01-24T11:08:16.521Z,72.93
2019-01-24T11:10:45.526Z,66.37
2019-01-24T11:13:14.549Z,73.37
2019-01-24T11:15:43.590Z,73.17
2019-01-24T11:18:12.571Z,64.53
2019-01-24T11:20:41.579Z,76.47
2019-01-24T11:23:10.589Z,69.53
2019-01-24T11:25:39.592Z,66.47
2019-01-24T11:28:08.673Z,65.70
2019-01-24T11:30:37.648Z,75.37
2019-01-24T11:33:06.955Z,74.47
2019-01-24T11:35:36.046Z,72.07
2019-01-24T11:38:05.337Z,73.73
2019-01-24T11:40:34.469Z,68.27
2019-01-24T11:43:03.585Z,76.60
2019-01-24T11:45:33.765Z,69.00
2019-01-24T11:48:02.883Z,75.03
2019-01-24T11:50:31.896Z,69.53
2019-01-24T11:53:00.891Z,69.60
2019-01-24T11:55:29.911Z,66.67
2019-01-24T11:57:58.907Z,73.67
2019-01-24T12:00:31.569Z,64.00
2019-01-24T12:03:00.571Z,64.73
2019-01-24T12:05:29.658Z,72.33
2019-01-24T12:07:58.729Z,66.37
2019-01-24T12:10:27.834Z,67.67
2019-01-24T12:12:56.884Z,67.90
2019-01-24T12:15:26.037Z,66.17
2019-01-24T12:17:55.050Z,64.97
2019-01-24T12:20:24.195Z,67.97
2019-01-24T12:22:53.355Z,68.57
2019-01-24T12:25:22.407Z,71.77
2019-01-24T12:27:51.403Z,72.43
2019-01-24T12:30:21.587Z,70.77
2019-01-24T12:32:50.679Z,66.97
2019-01-24T12:35:19.675Z,67.97
2019-01-24T12:37:48.692Z,61.83
2019-01-24T12:40:17.687Z,65.87
2019-01-24T12:42:46.757Z,68.10
2019-01-24T12:45:17.043Z,65.87
2019-01-24T12:47:46.055Z,71.07
2019-01-24T12:50:15.553Z,68.07
2019-01-24T12:52:44.534Z,69.82
2019-01-24T12:55:13.649Z,68.67
2019-01-24T12:57:42.626Z,62.33
2019-01-24T13:00:16.035Z,65.33
2019-01-24T13:02:45.099Z,68.40
2019-01-24T13:05:14.095Z,66.70
2019-01-24T13:07:43.082Z,62.60
2019-01-24T13:10:13.590Z,68.47
2019-01-24T13:12:42.572Z,56.83
2019-01-24T13:15:11.807Z,60.97
2019-01-24T13:17:40.905Z,66.47
2019-01-24T13:20:10.923Z,76.33
2019-01-24T13:22:39.919Z,68.93
2019-01-24T13:25:10.119Z,69.87
2019-01-24T13:27:39.115Z,67.27
2019-01-24T13:30:10.367Z,63.93
2019-01-24T13:32:39.436Z,62.20
2019-01-24T13:35:08.495Z,72.00
2019-01-24T13:37:37.487Z,69.03
2019-01-24T13:40:07.586Z,74.83
2019-01-24T13:42:36.564Z,83.50
2019-01-24T13:45:06.704Z,72.77
2019-01-24T13:47:35.679Z,68.63
2019-01-24T13:50:05.174Z,66.33
2019-01-24T13:52:34.223Z,65.07
2019-01-24T13:55:03.302Z,61.70
2019-01-24T13:57:32.383Z,68.50
2019-01-24T14:00:03.480Z,63.77
2019-01-24T14:02:32.479Z,66.33
2019-01-24T14:05:01.479Z,67.90
2019-01-24T14:07:33.077Z,62.40
2019-01-24T14:10:01.145Z,62.50
2019-01-24T14:12:30.199Z,58.40
2019-01-24T14:14:59.222Z,63.97
2019-01-24T14:17:28.287Z,67.73
2019-01-24T14:19:57.303Z,65.80
2019-01-24T14:22:26.291Z,70.67
2019-01-24T14:24:55.375Z,63.70
2019-01-24T14:27:24.376Z,68.40
2019-01-24T14:29:53.392Z,65.67
2019-01-24T14:32:23.441Z,65.13
2019-01-24T14:34:52.438Z,64.27
2019-01-24T14:37:21.465Z,65.63
2019-01-24T14:39:50.543Z,65.67
2019-01-24T14:42:19.639Z,66.70
2019-01-24T14:44:48.714Z,64.50
2019-01-24T14:47:17.723Z,62.07
2019-01-24T14:49:46.747Z,60.87
2019-01-24T14:52:15.795Z,57.83
2019-01-24T14:54:44.796Z,62.87
2019-01-24T14:57:13.887Z,61.93
2019-01-24T14:59:42.925Z,55.30
2019-01-24T15:02:11.921Z,61.33
2019-01-24T15:04:40.913Z,57.27
2019-01-24T15:07:09.995Z,55.57
2019-01-24T15:09:39.051Z,59.87
2019-01-24T15:12:08.048Z,60.97
2019-01-24T15:14:37.055Z,59.80
2019-01-24T15:17:06.100Z,56.97
2019-01-24T15:19:35.083Z,48.50
2019-01-24T15:22:04.187Z,57.10
2019-01-24T15:24:33.274Z,59.73
2019-01-24T15:27:02.280Z,59.10
2019-01-24T15:29:31.263Z,63.83
2019-01-24T15:32:00.263Z,56.33
2019-01-24T15:34:29.311Z,59.63
2019-01-24T15:36:58.495Z,59.60
2019-01-24T15:39:29.190Z,54.20
2019-01-24T15:42:00.492Z,56.17
2019-01-24T15:44:29.571Z,60.67
2019-01-24T15:46:58.692Z,57.17
2019-01-24T15:49:27.668Z,58.23
2019-01-24T15:51:56.823Z,55.40
2019-01-24T15:54:25.829Z,58.00
2019-01-24T15:56:54.943Z,65.30
2019-01-24T15:59:24.188Z,60.40
2019-01-24T16:01:53.274Z,61.30
2019-01-24T16:04:22.275Z,61.40
2019-01-24T16:06:51.268Z,66.13
2019-01-24T16:09:20.252Z,59.83
2019-01-24T16:11:49.263Z,62.03
2019-01-24T16:14:18.250Z,64.70
2019-01-24T16:16:47.266Z,60.37
2019-01-24T16:19:16.334Z,65.63
2019-01-24T16:21:45.404Z,61.50
2019-01-24T16:24:14.384Z,65.33
2019-01-24T16:26:43.422Z,60.43
2019-01-24T16:29:12.408Z,68.67
2019-01-24T16:31:41.480Z,63.97
2019-01-24T16:34:10.584Z,63.70
2019-01-24T16:36:39.594Z,65.83
2019-01-24T16:39:09.102Z,59.77
2019-01-24T16:41:38.134Z,66.17
2019-01-24T16:44:07.182Z,67.67
2019-01-24T16:46:36.559Z,64.07
2019-01-24T16:49:05.661Z,65.03
2019-01-24T16:51:34.664Z,60.60
2019-01-24T16:54:05.311Z,66.57
2019-01-24T16:56:34.318Z,62.40
2019-01-24T16:59:03.348Z,68.03
2019-01-24T17:01:32.372Z,60.70
2019-01-24T17:04:01.340Z,65.77
2019-01-24T17:06:30.350Z,59.93
2019-01-24T17:08:59.486Z,64.70
2019-01-24T17:11:31.103Z,68.73
2019-01-24T17:13:59.344Z,60.87
2019-01-24T17:16:28.345Z,64.03
2019-01-24T17:18:57.335Z,57.93
2019-01-24T17:21:26.411Z,62.47
2019-01-24T17:23:56.759Z,62.30
2019-01-24T17:26:25.770Z,59.50
2019-01-24T17:28:54.777Z,59.80
2019-01-24T17:31:23.792Z,66.60
2019-01-24T17:33:52.796Z,56.70
2019-01-24T17:36:21.852Z,62.57
2019-01-24T17:38:50.863Z,41.67
2019-01-24T17:41:19.835Z,62.00
2019-01-24T17:43:48.930Z,62.73
2019-01-24T17:46:17.915Z,62.10
2019-01-24T17:48:46.929Z,62.17
2019-01-24T17:51:15.986Z,45.47
2019-01-24T17:53:45.077Z,41.43
2019-01-24T17:56:14.248Z,42.00
2019-01-24T17:58:43.265Z,37.93
2019-01-24T18:01:12.374Z,43.73
2019-01-24T18:03:42.604Z,44.80
2019-01-24T18:06:12.157Z,43.83
2019-01-24T18:08:41.305Z,46.80
2019-01-24T18:11:10.348Z,45.50
2019-01-24T18:13:39.447Z,46.33
2019-01-24T18:16:08.661Z,45.23
2019-01-24T18:18:37.998Z,46.40
2019-01-24T18:21:07.131Z,43.43
2019-01-24T18:23:36.347Z,46.03
2019-01-24T18:26:05.509Z,41.93
2019-01-24T18:28:34.616Z,47.30
2019-01-24T18:31:03.922Z,48.43
2019-01-24T18:33:33.016Z,49.00
2019-01-24T18:36:02.131Z,46.13
2019-01-24T18:38:38.359Z,49.13
2019-01-24T18:41:08.602Z,45.33
2019-01-24T18:43:33.413Z,42.73
2019-01-24T18:46:02.981Z,41.33
2019-01-24T18:48:31.980Z,43.93
2019-01-24T18:51:01.011Z,49.30
2019-01-24T18:53:30.042Z,46.80
2019-01-24T18:55:59.146Z,50.93
2019-01-24T18:58:28.247Z,54.83
2019-01-24T19:00:57.411Z,47.67
2019-01-24T19:03:26.544Z,50.23
2019-01-24T19:05:55.649Z,50.53
2019-01-24T19:08:24.675Z,52.10
2019-01-24T19:10:53.745Z,49.30
2019-01-24T19:13:22.922Z,52.90
2019-01-24T19:15:52.039Z,55.37
2019-01-24T19:18:21.054Z,52.47
2019-01-24T19:20:50.134Z,52.27
2019-01-24T19:23:19.386Z,48.30
2019-01-24T19:25:48.457Z,56.40
2019-01-24T19:28:18.093Z,50.40
2019-01-24T19:30:47.180Z,54.17
2019-01-24T19:33:16.195Z,52.47
2019-01-24T19:35:45.267Z,49.73
2019-01-24T19:38:14.693Z,51.57
2019-01-24T19:40:43.714Z,47.97
2019-01-24T19:43:12.803Z,46.17
2019-01-24T19:45:41.882Z,49.70
2019-01-24T19:48:11.021Z,52.90
2019-01-24T19:50:40.113Z,51.90
2019-01-24T19:53:09.208Z,52.63
2019-01-24T19:55:38.237Z,52.47
2019-01-24T19:58:07.449Z,46.80
2019-01-24T20:00:36.572Z,48.10
2019-01-24T20:03:05.975Z,46.03
2019-01-24T20:05:35.122Z,47.77
2019-01-24T20:08:04.575Z,48.37
2019-01-24T20:10:33.637Z,52.67
2019-01-24T20:13:02.693Z,52.57
2019-01-24T20:15:32.003Z,47.40
2019-01-24T20:18:01.180Z,53.37
2019-01-24T20:20:30.305Z,52.53
2019-01-24T20:22:59.458Z,57.83
2019-01-24T20:25:32.235Z,55.13
2019-01-24T20:28:01.267Z,50.47
2019-01-24T20:30:31.049Z,56.33
2019-01-24T20:33:00.704Z,54.20
2019-01-24T20:35:31.117Z,59.87
2019-01-24T20:38:00.312Z,56.03
2019-01-24T20:40:29.294Z,58.23
2019-01-24T20:42:58.314Z,55.47
2019-01-24T20:45:27.362Z,54.97
2019-01-24T20:47:56.496Z,55.93
2019-01-24T20:50:25.522Z,53.07
2019-01-24T20:52:54.553Z,53.80
2019-01-24T20:55:23.632Z,59.43
2019-01-24T20:57:52.748Z,61.07
2019-01-24T21:00:22.221Z,52.40
2019-01-24T21:02:51.464Z,51.47
2019-01-24T21:05:20.929Z,61.13
2019-01-24T21:07:50.233Z,54.93
2019-01-24T21:10:20.444Z,49.77
2019-01-24T21:12:51.271Z,52.40
2019-01-24T21:15:20.388Z,50.37
2019-01-24T21:17:49.537Z,55.70
2019-01-24T21:20:19.510Z,52.73
2019-01-24T21:22:48.685Z,50.70
2019-01-24T21:25:18.095Z,49.67
2019-01-24T21:27:47.176Z,51.17
2019-01-24T21:30:17.608Z,51.03
2019-01-24T21:32:46.699Z,42.80
2019-01-24T21:35:15.854Z,56.83
2019-01-24T21:37:44.925Z,49.37
2019-01-24T21:40:14.970Z,43.53
2019-01-24T21:42:44.108Z,49.17
2019-01-24T21:45:15.419Z,47.67
2019-01-24T21:47:46.939Z,40.63
2019-01-24T21:50:16.995Z,45.67
2019-01-24T21:52:46.037Z,56.73
2019-01-24T21:55:15.787Z,49.03
2019-01-24T21:57:44.819Z,50.20
2019-01-24T22:00:14.945Z,54.07
2019-01-24T22:02:43.988Z,45.77
2019-01-24T22:05:13.049Z,48.70
2019-01-24T22:07:42.195Z,51.93
2019-01-24T22:10:12.345Z,55.27
2019-01-24T22:12:41.436Z,48.90
2019-01-24T22:15:11.929Z,47.87
2019-01-24T22:17:41.047Z,47.10
2019-01-24T22:20:10.142Z,49.63
2019-01-24T22:22:39.143Z,49.13
2019-01-24T22:25:09.316Z,51.30
2019-01-24T22:27:38.315Z,53.03
2019-01-24T22:30:08.792Z,55.03
2019-01-24T22:32:37.809Z,53.33
2019-01-24T22:35:06.834Z,50.20
2019-01-24T22:37:35.835Z,48.87
2019-01-24T22:40:05.267Z,51.70
2019-01-24T22:42:34.317Z,50.43
2019-01-24T22:45:03.341Z,53.27
2019-01-24T22:47:32.406Z,55.80
2019-01-24T22:50:01.508Z,55.87
2019-01-24T22:52:30.543Z,52.07
2019-01-24T22:54:59.556Z,56.80
2019-01-24T22:57:29.627Z,55.67
2019-01-24T22:59:58.671Z,53.20
2019-01-24T23:02:28.656Z,52.30
2019-01-24T23:04:57.640Z,49.77
2019-01-24T23:07:26.622Z,56.63
2019-01-24T23:09:55.623Z,54.27
2019-01-24T23:12:24.614Z,52.50
2019-01-24T23:14:53.687Z,54.13
2019-01-24T23:17:22.664Z,55.40
2019-01-24T23:19:51.666Z,55.20
2019-01-24T23:22:20.659Z,51.77
2019-01-24T23:24:49.652Z,53.70
2019-01-24T23:27:18.687Z,51.80
2019-01-24T23:29:47.768Z,50.80
2019-01-24T23:32:35.930Z,57.50
2019-01-24T23:35:05.352Z,54.43
2019-01-24T23:37:34.416Z,53.67
2019-01-24T23:40:03.926Z,52.53
2019-01-24T23:42:32.939Z,53.57
2019-01-24T23:45:02.003Z,54.90
2019-01-24T23:47:31.003Z,52.97
2019-01-24T23:49:59.996Z,52.13
2019-01-24T23:52:28.979Z,50.73
2019-01-24T23:54:57.993Z,64.17
2019-01-24T23:57:27.031Z,55.30
2019-01-24T23:59:56.055Z,54.63
